Time;durP1;ratioP1;P1;durP2;ratioP2;P2;SDS_P1;SDS_P2;PMS_P1;PMS_P2;Temp;Humidity;BMP_temperature;BMP_pressure;BME280_temperature;BME280_humidity;BME280_pressure;Samples;Min_cycle;Max_cycle;Signal;HPM_P1;HPM_P2
2024/02/14 00:00:41;;;;;;;9.60;7.80;;;;;;;4.45;100.00;98619.55;105745;1255;71165;-84
2024/02/14 00:03:08;;;;;;;9.40;7.70;;;;;;;4.46;100.00;98624.30;105723;1259;61474;-85
2024/02/14 00:05:35;;;;;;;8.80;6.80;;;;;;;4.46;100.00;98624.47;105783;1256;61026;-85
2024/02/14 00:08:03;;;;;;;7.30;6.50;;;;;;;4.46;100.00;98628.20;105855;1256;73664;-85
2024/02/14 00:10:30;;;;;;;11.20;6.70;;;;;;;4.46;100.00;98629.63;105720;1253;74348;-87
2024/02/14 00:12:57;;;;;;;7.60;6.50;;;;;;;4.45;100.00;98629.65;105734;1254;72532;-84
2024/02/14 00:15:25;;;;;;;9.10;6.40;;;;;;;4.44;100.00;98636.27;105852;1258;61055;-87
2024/02/14 00:17:53;;;;;;;8.90;7.00;;;;;;;4.42;100.00;98635.96;106947;1254;60992;-85
2024/02/14 00:20:20;;;;;;;9.20;6.70;;;;;;;4.42;100.00;98636.52;106026;1254;74200;-85
2024/02/14 00:22:47;;;;;;;12.70;7.30;;;;;;;4.42;100.00;98641.28;105765;1254;72591;-85
2024/02/14 00:25:14;;;;;;;9.70;7.80;;;;;;;4.42;100.00;98638.65;106770;1253;73590;-83
2024/02/14 00:27:46;;;;;;;11.90;7.10;;;;;;;4.42;100.00;98639.52;108296;1254;61205;-84
2024/02/14 00:30:13;;;;;;;9.00;7.70;;;;;;;4.42;100.00;98645.73;105923;1253;61004;-85
2024/02/14 00:32:40;;;;;;;11.00;7.00;;;;;;;4.41;100.00;98647.02;105829;1254;74335;-85
2024/02/14 00:35:08;;;;;;;8.10;6.90;;;;;;;4.41;100.00;98648.27;105693;1254;74929;-86
2024/02/14 00:37:35;;;;;;;13.90;7.70;;;;;;;4.41;100.00;98651.09;105804;1254;73954;-84
2024/02/14 00:40:03;;;;;;;9.00;6.10;;;;;;;4.40;100.00;98648.80;105712;1253;61116;-84
2024/02/14 00:42:31;;;;;;;7.50;5.70;;;;;;;4.39;100.00;98652.03;105827;1254;61023;-85
2024/02/14 00:44:58;;;;;;;12.20;6.40;;;;;;;4.39;100.00;98651.37;105937;1256;73535;-86
2024/02/14 00:47:25;;;;;;;9.00;6.30;;;;;;;4.38;100.00;98648.19;107714;1254;73529;-82
2024/02/14 00:49:52;;;;;;;8.40;5.60;;;;;;;4.38;100.00;98653.15;108911;1253;72366;-83
2024/02/14 00:52:21;;;;;;;8.80;5.60;;;;;;;4.38;100.00;98655.47;109131;1259;59361;-82
2024/02/14 00:54:51;;;;;;;9.60;5.10;;;;;;;4.36;100.00;98651.30;107543;1253;61055;-85
2024/02/14 00:57:19;;;;;;;9.20;5.10;;;;;;;4.34;100.00;98655.61;106544;1256;72597;-84
2024/02/14 00:59:46;;;;;;;6.50;4.80;;;;;;;4.32;100.00;98656.92;107014;1257;74316;-85
2024/02/14 01:02:13;;;;;;;7.70;5.70;;;;;;;4.30;100.00;98656.84;106517;1252;71626;-86
2024/02/14 01:04:40;;;;;;;10.60;5.60;;;;;;;4.30;100.00;98662.34;105850;1256;61103;-86
2024/02/14 01:07:08;;;;;;;8.40;5.40;;;;;;;4.29;100.00;98660.27;105845;1253;61206;-86
2024/02/14 01:09:36;;;;;;;8.80;6.00;;;;;;;4.26;100.00;98660.52;105954;1252;74791;-85
2024/02/14 01:12:04;;;;;;;7.60;4.50;;;;;;;4.24;100.00;98661.17;105961;1254;73303;-86
2024/02/14 01:14:31;;;;;;;8.20;4.90;;;;;;;4.21;100.00;98666.57;105870;1253;71643;-85
2024/02/14 01:16:58;;;;;;;8.70;4.50;;;;;;;4.20;99.96;98670.52;105828;1253;62202;-86
2024/02/14 01:19:28;;;;;;;6.10;4.10;;;;;;;4.17;99.55;98664.79;105899;1257;61102;-84
2024/02/14 01:21:56;;;;;;;7.00;4.70;;;;;;;4.15;99.33;98665.23;105993;1256;73438;-85
2024/02/14 01:24:26;;;;;;;8.80;5.00;;;;;;;4.12;99.46;98669.41;105873;1254;74309;-84
2024/02/14 01:26:55;;;;;;;7.30;4.40;;;;;;;4.09;99.59;98667.92;105666;1253;73422;-84
2024/02/14 01:29:23;;;;;;;7.90;3.90;;;;;;;4.08;99.35;98664.60;105855;1253;61593;-85
2024/02/14 01:31:50;;;;;;;7.20;4.40;;;;;;;4.06;98.79;98668.77;105922;1253;61204;-86
2024/02/14 01:34:17;;;;;;;5.10;3.70;;;;;;;4.05;99.35;98671.14;105766;1254;73173;-84
2024/02/14 01:36:46;;;;;;;6.40;4.80;;;;;;;4.03;99.21;98675.77;105741;1253;73900;-85
2024/02/14 01:39:13;;;;;;;4.40;3.50;;;;;;;4.01;98.86;98677.31;105664;1258;70767;-85
2024/02/14 01:41:48;;;;;;;6.10;3.70;;;;;;;3.99;98.72;98674.15;105844;1253;61154;-87
2024/02/14 01:44:16;;;;;;;6.80;4.90;;;;;;;3.98;98.57;98675.26;105813;1253;61126;-84
2024/02/14 01:46:44;;;;;;;4.40;3.60;;;;;;;3.96;98.90;98677.08;105885;1254;73566;-85
2024/02/14 01:49:12;;;;;;;5.90;4.00;;;;;;;3.95;99.04;98675.89;104976;1254;1003106;-84
2024/02/14 01:51:42;;;;;;;4.60;3.40;;;;;;;3.94;99.09;98676.84;105885;1256;72553;-85
2024/02/14 01:54:09;;;;;;;7.10;3.40;;;;;;;3.92;98.90;98677.96;105723;1258;61231;-85
2024/02/14 01:56:36;;;;;;;6.00;3.60;;;;;;;3.92;98.95;98681.86;105778;1259;61279;-86
2024/02/14 01:59:05;;;;;;;7.30;4.20;;;;;;;3.91;98.99;98681.55;106389;1254;74777;-86
2024/02/14 02:01:33;;;;;;;6.10;3.50;;;;;;;3.91;99.50;98685.81;106434;1254;74480;-86
2024/02/14 02:04:00;;;;;;;7.40;4.00;;;;;;;3.90;99.91;98690.64;105859;1254;71392;-85
2024/02/14 02:06:28;;;;;;;5.50;4.70;;;;;;;3.88;99.99;98689.80;105978;1254;61052;-85
2024/02/14 02:08:56;;;;;;;6.90;4.50;;;;;;;3.88;100.00;98694.08;106460;1253;61163;-86
2024/02/14 02:11:26;;;;;;;9.30;4.90;;;;;;;3.88;100.00;98695.30;107953;1252;72546;-85
2024/02/14 02:13:53;;;;;;;8.80;4.70;;;;;;;3.88;100.00;98699.90;109187;1252;73133;-85
2024/02/14 02:16:21;;;;;;;7.80;5.00;;;;;;;3.89;100.00;98700.06;107539;1254;71091;-85
2024/02/14 02:18:49;;;;;;;6.70;5.20;;;;;;;3.88;100.00;98695.66;107277;1254;61189;-87
2024/02/14 02:21:23;;;;;;;7.30;5.00;;;;;;;3.89;100.00;98701.64;106978;1252;61038;-84
2024/02/14 02:23:51;;;;;;;8.70;5.40;;;;;;;3.90;100.00;98699.47;109432;1254;72756;-83
2024/02/14 02:26:18;;;;;;;9.80;5.80;;;;;;;3.92;100.00;98703.48;109620;1253;74583;-85
2024/02/14 02:28:46;;;;;;;10.30;6.60;;;;;;;3.93;100.00;98707.88;109326;1252;71480;-85
2024/02/14 02:31:13;;;;;;;6.30;5.00;;;;;;;3.94;100.00;98710.15;109285;1253;58749;-85
2024/02/14 02:33:40;;;;;;;11.60;6.80;;;;;;;3.94;100.00;98716.53;108833;1253;61236;-84
2024/02/14 02:36:09;;;;;;;8.80;5.70;;;;;;;3.95;100.00;98715.05;105822;1253;73761;-86
2024/02/14 02:38:37;;;;;;;7.00;5.30;;;;;;;3.96;100.00;98718.73;106109;1254;73402;-84
2024/02/14 02:41:07;;;;;;;10.00;6.10;;;;;;;3.96;100.00;98720.14;105127;1256;1003029;-84
2024/02/14 02:43:34;;;;;;;11.30;6.20;;;;;;;3.96;100.00;98719.63;105733;1256;61093;-83
2024/02/14 02:46:01;;;;;;;6.80;5.00;;;;;;;3.95;100.00;98720.02;105543;1254;61090;-85
2024/02/14 02:48:29;;;;;;;6.90;4.60;;;;;;;3.93;99.97;98725.57;105991;1254;74920;-85
2024/02/14 02:50:57;;;;;;;7.60;5.00;;;;;;;3.92;99.43;98722.95;105980;1256;73254;-85
2024/02/14 02:53:24;;;;;;;6.40;4.20;;;;;;;3.91;99.22;98724.23;105932;1256;72293;-85
2024/02/14 02:55:51;;;;;;;7.10;5.00;;;;;;;3.91;99.05;98730.80;105753;1254;61079;-86
2024/02/14 02:58:21;;;;;;;5.80;4.30;;;;;;;3.91;98.63;98729.56;105840;1255;61080;-84
2024/02/14 03:00:49;;;;;;;10.50;5.10;;;;;;;3.90;98.21;98732.80;105904;1254;73727;-84
2024/02/14 03:03:16;;;;;;;7.40;4.10;;;;;;;3.89;98.14;98733.38;105918;1256;73743;-85
2024/02/14 03:05:44;;;;;;;6.90;4.80;;;;;;;3.88;97.78;98736.21;105831;1254;72305;-85
2024/02/14 03:08:15;;;;;;;5.80;4.00;;;;;;;3.88;97.08;98739.97;105829;1254;61165;-85
2024/02/14 03:10:45;;;;;;;4.00;3.30;;;;;;;3.87;96.77;98739.45;105815;1256;61217;-84
2024/02/14 03:13:13;;;;;;;5.70;4.30;;;;;;;3.85;96.77;98741.65;105793;1254;73949;-85
2024/02/14 03:15:40;;;;;;;6.90;4.30;;;;;;;3.85;96.63;98744.85;105672;1254;72902;-85
2024/02/14 03:18:09;;;;;;;7.50;3.90;;;;;;;3.82;96.30;98746.20;105894;1254;72895;-83
2024/02/14 03:20:37;;;;;;;8.40;4.40;;;;;;;3.81;96.11;98750.85;105914;1253;60997;-86
2024/02/14 03:23:04;;;;;;;9.60;4.30;;;;;;;3.80;96.06;98751.94;105870;1256;61105;-85
2024/02/14 03:25:31;;;;;;;6.70;4.50;;;;;;;3.80;96.29;98753.36;105875;1254;74002;-84
2024/02/14 03:27:58;;;;;;;6.30;3.60;;;;;;;3.79;95.91;98756.39;105849;1254;75437;-86
2024/02/14 03:30:25;;;;;;;7.60;4.30;;;;;;;3.78;95.50;98755.89;105904;1257;70529;-85
2024/02/14 03:32:52;;;;;;;5.40;4.10;;;;;;;3.77;95.40;98760.55;105768;1256;61098;-85
2024/02/14 03:35:21;;;;;;;7.60;5.50;;;;;;;3.76;95.87;98763.77;105930;1254;61470;-86
2024/02/14 03:37:49;;;;;;;5.90;4.30;;;;;;;3.76;96.50;98764.67;105879;1254;74584;-84
2024/02/14 03:40:16;;;;;;;8.20;5.20;;;;;;;3.76;97.08;98766.27;106302;1254;74932;-85
2024/02/14 03:42:43;;;;;;;9.40;7.00;;;;;;;3.76;97.37;98770.16;106532;1253;72619;-85
2024/02/14 03:45:11;;;;;;;14.40;9.30;;;;;;;3.75;97.87;98771.41;106100;1256;61128;-85
2024/02/14 03:47:39;;;;;;;16.60;10.70;;;;;;;3.75;98.35;98771.77;106550;1253;61048;-86
2024/02/14 03:50:08;;;;;;;21.50;14.00;;;;;;;3.76;99.05;98777.95;106735;1254;74779;-85
2024/02/14 03:52:35;;;;;;;41.80;19.50;;;;;;;3.76;99.05;98777.79;106775;1256;73943;-85
2024/02/14 03:55:03;;;;;;;28.80;16.10;;;;;;;3.76;99.43;98779.54;106689;1254;73718;-84
2024/02/14 03:57:30;;;;;;;55.10;26.00;;;;;;;3.76;99.63;98782.18;107117;1253;61061;-84
2024/02/14 03:59:59;;;;;;;37.40;18.80;;;;;;;3.76;99.95;98777.93;109729;1254;59073;-85
2024/02/14 04:02:28;;;;;;;29.50;16.00;;;;;;;3.76;100.00;98783.41;109728;1254;73485;-85
2024/02/14 04:04:55;;;;;;;25.20;13.40;;;;;;;3.77;100.00;98785.00;109721;1252;74329;-85
2024/02/14 04:07:22;;;;;;;15.90;12.20;;;;;;;3.78;100.00;98786.36;109583;1252;72679;-86
2024/02/14 04:09:50;;;;;;;14.00;8.80;;;;;;;3.79;100.00;98786.49;109551;1252;58515;-86
2024/02/14 04:12:22;;;;;;;11.90;7.20;;;;;;;3.80;100.00;98791.07;109753;1253;58914;-86
2024/02/14 04:14:49;;;;;;;7.80;6.10;;;;;;;3.81;100.00;98791.76;106394;1258;73070;-86
2024/02/14 04:17:17;;;;;;;7.60;6.60;;;;;;;3.81;100.00;98794.94;106058;1254;73595;-87
2024/02/14 04:19:44;;;;;;;8.80;6.70;;;;;;;3.82;100.00;98799.33;106898;1253;72316;-85
2024/02/14 04:22:11;;;;;;;11.30;7.40;;;;;;;3.83;100.00;98797.16;108718;1253;60850;-85
2024/02/14 04:24:38;;;;;;;9.20;6.70;;;;;;;3.84;100.00;98797.15;106856;1260;61024;-87
2024/02/14 04:27:05;;;;;;;9.60;7.60;;;;;;;3.83;100.00;98798.04;108135;1254;73224;-87
2024/02/14 04:29:33;;;;;;;9.70;7.20;;;;;;;3.82;100.00;98801.30;107410;1257;74767;-88
2024/02/14 04:32:02;;;;;;;9.00;5.70;;;;;;;3.82;100.00;98800.08;106254;1257;72020;-88
2024/02/14 04:34:30;;;;;;;8.60;6.20;;;;;;;3.82;100.00;98806.23;105872;1259;63472;-88
2024/02/14 04:36:58;;;;;;;10.90;6.90;;;;;;;3.81;100.00;98804.70;105967;1255;61161;-88
2024/02/14 04:39:25;;;;;;;9.20;6.80;;;;;;;3.80;99.97;98807.55;106089;1254;73982;-87
2024/02/14 04:41:54;;;;;;;10.80;7.40;;;;;;;3.79;100.00;98807.77;106123;1257;74360;-89
2024/02/14 04:44:29;;;;;;;10.60;7.10;;;;;;;3.77;100.00;98809.44;106450;1254;73729;-88
2024/02/14 04:47:00;;;;;;;13.40;6.40;;;;;;;3.76;99.98;98809.46;107395;1257;62597;-87
2024/02/14 04:49:30;;;;;;;7.80;4.40;;;;;;;3.76;99.97;98810.00;106094;1257;61106;-88
2024/02/14 04:51:58;;;;;;;13.30;8.40;;;;;;;3.75;99.79;98812.51;106132;1258;73038;-89
2024/02/14 04:54:25;;;;;;;13.00;7.40;;;;;;;3.73;99.78;98814.88;106131;1257;74822;-87
2024/02/14 04:56:54;;;;;;;12.40;6.30;;;;;;;3.72;99.88;98820.76;106104;1257;71647;-88
2024/02/14 04:59:26;;;;;;;7.20;6.30;;;;;;;3.71;99.68;98824.90;106092;1259;61190;-89
2024/02/14 05:01:54;;;;;;;9.60;5.90;;;;;;;3.69;99.87;98830.44;106894;1257;61061;-88
2024/02/14 05:04:22;;;;;;;7.50;5.70;;;;;;;3.68;99.63;98832.07;107293;1254;71345;-88
2024/02/14 05:06:50;;;;;;;11.20;7.90;;;;;;;3.69;99.56;98833.29;106098;1257;73020;-86
2024/02/14 05:09:21;;;;;;;10.00;6.80;;;;;;;3.68;99.54;98832.78;105997;1257;71471;-88
2024/02/14 05:11:48;;;;;;;11.50;8.00;;;;;;;3.67;99.59;98834.95;105982;1254;61051;-89
2024/02/14 05:14:16;;;;;;;10.90;7.20;;;;;;;3.67;99.42;98834.94;105820;1259;61161;-88
2024/02/14 05:16:43;;;;;;;8.80;5.60;;;;;;;3.67;99.26;98836.38;105670;1259;72978;-88
2024/02/14 05:19:10;;;;;;;6.50;4.80;;;;;;;3.68;98.78;98835.97;105923;1254;75556;-88
2024/02/14 05:21:38;;;;;;;8.80;5.20;;;;;;;3.67;98.13;98834.22;106285;1259;72619;-88
2024/02/14 05:24:06;;;;;;;9.40;5.00;;;;;;;3.66;97.83;98833.55;107713;1254;60953;-88
2024/02/14 05:26:34;;;;;;;10.10;5.40;;;;;;;3.66;97.43;98837.99;107328;1258;61157;-89
2024/02/14 05:29:01;;;;;;;13.20;6.10;;;;;;;3.65;97.21;98841.21;106248;1259;72269;-89
2024/02/14 05:31:43;;;;;;;8.20;4.50;;;;;;;3.64;96.95;98841.05;106001;1254;73172;-89
2024/02/14 05:34:10;;;;;;;6.50;4.20;;;;;;;3.64;96.50;98843.36;106032;1259;71946;-89
2024/02/14 05:36:39;;;;;;;10.80;4.10;;;;;;;3.65;96.40;98848.27;105704;1254;134762;-88
2024/02/14 05:39:07;;;;;;;4.60;2.80;;;;;;;3.67;96.14;98851.41;106145;1254;61207;-88
2024/02/14 05:41:35;;;;;;;4.80;2.80;;;;;;;3.67;95.83;98854.07;106284;1258;73750;-89
2024/02/14 05:44:02;;;;;;;4.80;2.80;;;;;;;3.67;95.66;98861.14;106498;1254;74181;-89
2024/02/14 05:46:30;;;;;;;4.40;2.50;;;;;;;3.67;95.52;98860.98;107905;1254;72012;-87
2024/02/14 05:48:57;;;;;;;5.00;1.80;;;;;;;3.67;95.09;98861.33;109480;1253;58768;-87
2024/02/14 05:51:25;;;;;;;4.30;2.80;;;;;;;3.67;94.30;98866.29;109383;1254;60987;-88
2024/02/14 05:53:52;;;;;;;5.00;2.00;;;;;;;3.66;93.76;98867.55;109153;1254;72830;-91
2024/02/14 05:56:22;;;;;;;5.50;2.60;;;;;;;3.68;93.09;98869.28;109352;1257;73392;-89
2024/02/14 05:58:52;;;;;;;4.20;3.00;;;;;;;3.69;92.43;98872.05;109329;1254;71369;-89
2024/02/14 06:01:22;;;;;;;4.90;1.80;;;;;;;3.70;91.84;98873.42;108372;1257;61152;-91
2024/02/14 06:03:50;;;;;;;4.40;2.70;;;;;;;3.71;91.39;98874.65;106508;1254;61243;-89
2024/02/14 06:06:26;;;;;;;2.80;1.70;;;;;;;3.71;91.22;98872.00;106118;1257;74664;-87
2024/02/14 06:09:09;;;;;;;2.80;1.90;;;;;;;3.72;90.65;98875.67;106444;1257;75991;-88
2024/02/14 06:11:42;;;;;;;2.60;2.20;;;;;;;3.73;90.26;98874.77;106322;1257;72572;-89
2024/02/14 06:14:14;;;;;;;3.70;2.00;;;;;;;3.73;89.67;98881.84;108047;1256;60460;-88
2024/02/14 06:16:45;;;;;;;3.00;1.70;;;;;;;3.74;89.10;98883.23;108721;1254;60983;-89
2024/02/14 06:19:27;;;;;;;3.70;1.60;;;;;;;3.74;88.69;98884.45;109082;1254;72742;-85
2024/02/14 06:21:56;;;;;;;2.80;1.70;;;;;;;3.75;88.45;98883.91;109208;1256;73236;-88
2024/02/14 06:24:24;;;;;;;3.90;1.60;;;;;;;3.76;87.52;98886.52;108102;1259;71247;-87
2024/02/14 06:27:29;;;;;;;6.50;2.50;;;;;;;3.76;87.14;98892.89;107509;1255;61154;-91
2024/02/14 06:30:31;;;;;;;5.60;3.50;;;;;;;3.77;86.94;98896.23;106066;1261;61177;-89
2024/02/14 06:33:03;;;;;;;5.50;3.00;;;;;;;3.78;86.79;98897.61;105786;1263;74893;-89
2024/02/14 06:35:31;;;;;;;10.60;6.00;;;;;;;3.78;86.94;98894.95;105984;1263;74668;-89
2024/02/14 06:38:02;;;;;;;14.80;9.90;;;;;;;3.79;87.24;98899.53;105987;1260;73024;-90
2024/02/14 06:40:36;;;;;;;13.50;8.40;;;;;;;3.79;87.47;98898.64;105702;1260;61150;-88
2024/02/14 06:43:38;;;;;;;8.00;5.40;;;;;;;3.79;87.57;98900.41;105332;1269;61682;-88
2024/02/14 06:46:43;;;;;;;;;;;;;;;;;;;;;
2024/02/14 06:50:29;;;;;;;3.00;1.90;;;;;;;3.78;86.79;98907.35;105308;1266;74648;-87
2024/02/14 06:53:35;;;;;;;4.80;2.40;;;;;;;3.77;86.49;98906.70;105222;1271;72013;-91
2024/02/14 06:56:31;;;;;;;5.20;2.80;;;;;;;3.76;86.59;98905.65;106402;1273;61054;-87
2024/02/14 07:09:40;;;;;;;6.10;3.90;;;;;;;3.81;86.22;98910.45;105634;1267;72883;-91
2024/02/14 07:12:51;;;;;;;7.10;3.90;;;;;;;3.84;85.78;98911.21;105017;1265;61171;-91
2024/02/14 07:16:48;;;;;;;5.40;2.70;;;;;;;3.85;85.41;98909.59;105734;1262;61204;31
2024/02/14 07:23:44;;;;;;;4.30;3.60;;;;;;;3.88;84.96;98914.29;105515;1273;74539;-90
2024/02/14 07:26:32;;;;;;;5.30;3.10;;;;;;;3.90;85.12;98914.41;104759;1278;73974;-88
2024/02/14 07:34:12;;;;;;;5.00;2.50;;;;;;;3.94;83.83;98909.47;104555;1292;61336;-87
2024/02/14 07:36:46;;;;;;;3.50;2.10;;;;;;;3.96;83.53;98908.52;103381;1295;75932;-87
2024/02/14 07:39:39;;;;;;;4.60;2.50;;;;;;;3.98;83.32;98906.52;104283;1292;74297;-89
2024/02/14 07:52:00;;;;;;;3.10;2.50;;;;;;;4.08;82.38;98914.50;102501;1303;61706;-90
2024/02/14 07:58:36;;;;;;;3.70;2.60;;;;;;;4.16;82.05;98922.55;101710;1311;75177;-91
2024/02/14 08:05:52;;;;;;;;;;;;;;;;;;;;;
2024/02/14 08:23:22;;;;;;;5.60;4.00;;;;;;;4.88;78.38;98935.53;107540;1259;864527;-92
2024/02/14 08:37:56;;;;;;;7.30;4.00;;;;;;;4.79;77.44;98931.64;111827;1236;70198;-91
2024/02/14 08:40:35;;;;;;;5.00;3.60;;;;;;;4.78;76.69;98933.98;111747;1236;60469;-89
2024/02/14 08:43:52;;;;;;;7.80;4.30;;;;;;;4.78;77.33;98936.13;111530;1236;59773;-89
2024/02/14 08:50:02;;;;;;;5.50;4.50;;;;;;;4.82;77.52;98941.27;111033;1248;73034;-89
2024/02/14 08:52:42;;;;;;;6.60;4.30;;;;;;;4.84;76.61;98942.79;110459;1248;73610;-89
2024/02/14 08:59:44;;;;;;;4.30;3.90;;;;;;;4.90;77.95;98950.39;111726;1235;58946;-88
2024/02/14 09:03:24;;;;;;;;;;;;;;;;;;;;;
2024/02/14 09:07:28;;;;;;;4.70;4.00;;;;;;;4.95;76.98;98954.10;110930;1232;72886;31
2024/02/14 09:13:25;;;;;;;5.80;3.90;;;;;;;4.98;78.07;98956.29;112160;1232;58625;-90
2024/02/14 09:15:54;;;;;;;6.10;4.00;;;;;;;5.00;77.82;98953.93;111865;1233;60150;-89
2024/02/14 09:18:24;;;;;;;5.40;4.40;;;;;;;5.01;77.77;98953.14;111757;1234;74772;-90
2024/02/14 09:24:58;;;;;;;11.70;5.50;;;;;;;5.07;79.52;98953.09;111975;1235;71260;-88
2024/02/14 09:27:39;;;;;;;7.20;5.00;;;;;;;5.10;79.99;98957.10;111658;1236;58895;-90
2024/02/14 09:31:15;;;;;;;8.30;5.30;;;;;;;5.12;79.59;98956.85;111653;1236;59157;-87
2024/02/14 09:33:44;;;;;;;15.00;5.60;;;;;;;5.16;80.02;98958.62;111595;1236;71539;-88
2024/02/14 09:39:31;;;;;;;10.50;6.50;;;;;;;5.30;79.14;98962.88;111620;1236;72417;-88
2024/02/14 09:42:02;;;;;;;10.70;6.60;;;;;;;5.38;79.10;98958.13;111712;1236;60271;-87
2024/02/14 09:44:32;;;;;;;11.40;5.20;;;;;;;5.48;79.02;98961.13;111629;1243;60459;-85
2024/02/14 09:47:26;;;;;;;6.20;4.60;;;;;;;5.57;77.04;98961.28;111752;1236;73653;-88
2024/02/14 09:50:08;;;;;;;6.60;5.30;;;;;;;5.66;76.15;98959.34;111951;1236;74134;-89
2024/02/14 09:52:55;;;;;;;8.20;4.70;;;;;;;5.74;75.77;98956.88;111746;1236;72268;-88
2024/02/14 09:55:36;;;;;;;5.70;4.80;;;;;;;5.84;74.47;98959.34;111875;1236;59183;-90
2024/02/14 09:58:28;;;;;;;4.60;3.90;;;;;;;5.91;73.16;98950.48;111497;1236;60236;-86
2024/02/14 10:06:42;;;;;;;8.50;4.60;;;;;;;6.03;66.48;98953.79;109834;1254;75326;-89
2024/02/14 10:09:18;;;;;;;7.50;4.10;;;;;;;6.03;64.02;98948.45;109781;1254;73130;-89
2024/02/14 10:11:46;;;;;;;5.90;3.80;;;;;;;6.04;61.42;98947.33;109808;1254;59007;-89
2024/02/14 10:18:03;;;;;;;5.80;3.70;;;;;;;6.05;58.72;98948.16;111879;1235;72710;-90
2024/02/14 10:20:43;;;;;;;7.30;4.20;;;;;;;6.04;59.23;98943.59;111601;1238;75592;-92
2024/02/14 10:23:39;;;;;;;4.70;4.20;;;;;;;6.04;59.97;98943.04;111547;1238;72674;-93
2024/02/14 10:36:52;;;;;;;8.40;4.60;;;;;;;6.01;59.90;98936.26;111861;1235;74285;-85
2024/02/14 10:39:20;;;;;;;6.40;4.80;;;;;;;6.03;59.95;98942.20;111877;1235;72378;-90
2024/02/14 10:42:03;;;;;;;6.60;4.40;;;;;;;6.06;60.40;98940.86;111864;1236;59939;-90
2024/02/14 10:44:45;;;;;;;6.20;4.20;;;;;;;6.07;61.65;98936.34;112031;1235;61789;-88
2024/02/14 10:47:48;;;;;;;;;;;;;;;;;;;;;
2024/02/14 10:50:17;;;;;;;6.70;4.10;;;;;;;6.08;62.78;98943.05;111914;1236;74380;-90
2024/02/14 10:52:44;;;;;;;4.90;3.10;;;;;;;6.07;62.18;98943.99;111831;1235;72680;-91
2024/02/14 10:55:12;;;;;;;4.40;3.90;;;;;;;6.05;61.62;98946.40;111767;1238;59705;-89
2024/02/14 10:57:55;;;;;;;6.70;3.50;;;;;;;6.02;61.78;98944.02;111735;1235;60598;-91
2024/02/14 11:04:19;;;;;;;5.30;3.20;;;;;;;6.04;60.89;98938.80;111774;1236;74116;-92
2024/02/14 11:07:52;;;;;;;;;;;;;;;6.17;60.99;98935.05;111118;1244;71561;-89
2024/02/14 11:25:33;;;;;;;5.80;4.00;;;;;;;6.99;57.47;98927.88;103804;1288;612995;-89
2024/02/14 11:28:29;;;;;;;7.10;4.40;;;;;;;7.05;56.70;98922.40;105429;1266;298817;-90
2024/02/14 11:31:40;;;;;;;6.60;4.30;;;;;;;6.97;55.48;98926.16;105809;1268;61089;-90
2024/02/14 11:34:59;;;;;;;6.90;4.10;;;;;;;6.90;56.20;98920.77;106113;1269;71120;-93
2024/02/14 11:38:11;;;;;;;5.30;4.10;;;;;;;6.94;56.73;98920.95;108419;1258;74441;-89
2024/02/14 11:40:59;;;;;;;6.30;4.40;;;;;;;7.00;57.03;98919.96;107061;1264;74805;-88
2024/02/14 11:48:01;;;;;;;;;;;;;;;;;;;;;
2024/02/14 11:51:30;;;;;;;5.10;2.80;;;;;;;7.10;57.23;98914.53;108235;1272;71026;-89
2024/02/14 11:54:05;;;;;;;7.10;3.90;;;;;;;7.07;57.27;98912.55;107142;1280;74252;-89
2024/02/14 11:57:08;;;;;;;6.80;4.80;;;;;;;7.03;57.12;98914.14;107412;1277;73107;-90
2024/02/14 12:02:44;;;;;;;;;;;;;;;;;;;;;
2024/02/14 12:35:10;;;;;;;;;;;;;;;;;;;;;
2024/02/14 12:38:28;;;;;;;4.60;2.70;;;;;;;8.03;53.13;98918.06;106735;1283;72684;-91
2024/02/14 12:41:53;;;;;;;4.50;1.90;;;;;;;8.12;52.42;98919.34;106433;1289;60083;-89
2024/02/14 12:45:04;;;;;;;2.50;2.10;;;;;;;8.11;51.91;98918.18;104868;1288;1003100;-87
2024/02/14 12:49:47;;;;;;;3.00;1.80;;;;;;;7.98;51.89;98921.50;106475;1287;71913;-88
2024/02/14 12:52:47;;;;;;;5.50;2.70;;;;;;;7.88;51.86;98925.36;107093;1282;75307;-90
2024/02/14 13:56:22;;;;;;;;;;;;;;;;;;;;;
2024/02/14 14:17:46;;;;;;;;;;;;;;;;;;;;;
2024/02/14 14:21:42;;;;;;;3.70;3.10;;;;;;;6.92;53.05;98960.42;106223;1293;58955;-91
2024/02/14 14:24:35;;;;;;;3.80;2.60;;;;;;;6.87;53.47;98961.33;106179;1292;71904;-91
2024/02/14 14:27:08;;;;;;;3.70;2.60;;;;;;;6.84;54.18;98961.81;105965;1295;74931;-90
2024/02/14 14:29:42;;;;;;;7.10;3.00;;;;;;;6.83;54.41;98962.94;106120;1291;73834;-90
2024/02/14 14:32:29;;;;;;;3.60;2.90;;;;;;;6.82;54.66;98964.19;105840;1292;58956;-89
2024/02/14 14:35:56;;;;;;;3.90;3.00;;;;;;;6.79;54.67;98964.88;105924;1292;60801;-90
2024/02/14 14:50:26;;;;;;;4.40;3.40;;;;;;;7.12;54.38;98963.20;103868;1285;614356;-88
2024/02/14 14:52:59;;;;;;;7.00;3.30;;;;;;;7.18;54.48;98969.38;101305;1270;6714067;-90
2024/02/14 14:56:02;;;;;;;4.20;3.60;;;;;;;7.13;54.76;98968.52;106677;1252;61066;-89
2024/02/14 14:59:06;;;;;;;6.00;3.40;;;;;;;7.09;55.13;98968.20;106339;1257;71760;-88
2024/02/14 15:06:01;;;;;;;4.70;4.10;;;;;;;7.06;55.74;98977.38;106912;1265;73083;-89
2024/02/14 15:09:37;;;;;;;7.90;3.80;;;;;;;7.02;56.28;98974.54;107477;1267;59252;-90
2024/02/14 15:28:17;;;;;;;6.70;5.00;;;;;;;6.43;57.71;98992.44;83078;1294;61540;-91
2024/02/14 15:33:30;;;;;;;10.20;4.60;;;;;;;6.23;58.27;98995.09;104497;1285;74045;-90
2024/02/14 15:36:01;;;;;;;6.70;4.00;;;;;;;6.13;58.77;98999.94;103970;1285;75149;-90
2024/02/14 15:38:29;;;;;;;6.00;4.40;;;;;;;6.04;58.94;99002.63;103981;1286;73278;-89
2024/02/14 15:41:04;;;;;;;7.40;5.30;;;;;;;5.95;58.95;99002.45;104035;1284;61144;-88
2024/02/14 15:43:33;;;;;;;11.60;8.50;;;;;;;5.85;59.64;99001.95;104198;1282;61026;-88
2024/02/14 15:46:00;;;;;;;55.00;27.60;;;;;;;5.76;59.67;99002.12;103932;1288;74234;-87
2024/02/14 15:48:29;;;;;;;52.60;26.10;;;;;;;5.68;59.88;99002.98;103911;1282;73172;-89
2024/02/14 15:50:58;;;;;;;38.60;20.00;;;;;;;5.59;60.55;99005.44;103721;1282;71692;-87
2024/02/14 15:53:26;;;;;;;28.00;11.50;;;;;;;5.51;60.78;99008.59;105563;1281;61194;-88
2024/02/14 15:55:54;;;;;;;22.00;10.50;;;;;;;5.42;60.99;99010.72;107150;1282;58666;-88
2024/02/14 15:58:21;;;;;;;15.20;8.60;;;;;;;5.34;60.99;99012.09;106924;1282;72723;-88
2024/02/14 16:00:49;;;;;;;23.20;9.80;;;;;;;5.27;61.72;99008.65;104191;1286;74814;-91
2024/02/14 16:03:16;;;;;;;18.90;8.60;;;;;;;5.20;61.77;99009.27;103840;1283;71334;-89
2024/02/14 16:05:44;;;;;;;19.60;9.70;;;;;;;5.13;62.04;99014.86;103423;1288;61159;-89
2024/02/14 16:08:15;;;;;;;22.30;10.20;;;;;;;5.07;62.22;99017.73;103652;1282;61224;-88
2024/02/14 16:10:45;;;;;;;19.40;12.20;;;;;;;4.99;62.69;99020.85;103799;1283;72975;-88
2024/02/14 16:13:12;;;;;;;30.80;16.30;;;;;;;4.92;62.86;99028.04;103670;1285;74846;-88
2024/02/14 16:15:40;;;;;;;45.40;22.00;;;;;;;4.85;63.01;99024.38;103810;1283;72500;-87
2024/02/14 16:18:07;;;;;;;54.60;24.40;;;;;;;4.79;63.22;99026.73;103761;1285;61323;-87
2024/02/14 16:20:34;;;;;;;41.00;19.80;;;;;;;4.72;63.53;99029.63;103903;1285;61217;-87
2024/02/14 16:23:01;;;;;;;55.30;23.00;;;;;;;4.66;63.49;99029.31;103535;1288;71311;-86
2024/02/14 16:25:30;;;;;;;64.40;23.60;;;;;;;4.60;63.80;99030.40;103729;1288;75190;-88
2024/02/14 16:27:58;;;;;;;56.50;21.20;;;;;;;4.54;64.27;99030.27;103485;1287;73442;-86
2024/02/14 16:30:25;;;;;;;56.20;23.30;;;;;;;4.47;64.66;99034.75;103844;1288;61238;-87
2024/02/14 16:32:52;;;;;;;48.40;18.60;;;;;;;4.41;64.82;99039.40;104024;1285;61163;-87
2024/02/14 16:35:20;;;;;;;31.60;13.30;;;;;;;4.35;65.28;99043.67;103884;1283;72225;-88
2024/02/14 16:37:47;;;;;;;36.80;13.40;;;;;;;4.30;65.55;99046.52;103600;1287;74648;-87
2024/02/14 16:40:15;;;;;;;30.40;12.20;;;;;;;4.24;65.86;99050.79;103382;1283;70668;-88
2024/02/14 16:42:42;;;;;;;31.70;14.80;;;;;;;4.19;66.22;99053.79;103774;1285;60998;-88
2024/02/14 16:45:09;;;;;;;18.80;14.50;;;;;;;4.13;66.27;99054.33;103830;1282;61110;-87
2024/02/14 16:47:37;;;;;;;49.80;38.50;;;;;;;4.08;66.27;99051.86;103877;1282;73166;-87
2024/02/14 16:50:06;;;;;;;52.20;33.70;;;;;;;4.03;66.25;99051.66;103759;1287;73859;-87
2024/02/14 16:52:35;;;;;;;30.40;22.20;;;;;;;3.99;66.74;99050.02;103856;1283;71624;-89
2024/02/14 16:55:03;;;;;;;20.00;16.30;;;;;;;3.96;66.84;99051.67;103636;1282;61147;-87